sensor_id;sensor_type;location;lat;lon;timestamp;P1;durP1;ratioP1;P2;durP2;ratioP2
23140;SDS011;11739;54.750;9.124;2023-07-13T00:01:51;2.65;;;1.60;;
23140;SDS011;11739;54.750;9.124;2023-07-13T00:04:17;2.90;;;1.88;;
23140;SDS011;11739;54.750;9.124;2023-07-13T00:06:44;3.13;;;1.65;;
23140;SDS011;11739;54.750;9.124;2023-07-13T00:09:11;2.95;;;1.88;;
23140;SDS011;11739;54.750;9.124;2023-07-13T00:11:37;4.43;;;1.55;;
23140;SDS011;11739;54.750;9.124;2023-07-13T00:14:03;2.10;;;1.60;;
23140;SDS011;11739;54.750;9.124;2023-07-13T00:16:28;2.40;;;1.50;;
23140;SDS011;11739;54.750;9.124;2023-07-13T00:18:53;5.70;;;2.03;;
23140;SDS011;11739;54.750;9.124;2023-07-13T00:21:19;4.10;;;1.90;;
23140;SDS011;11739;54.750;9.124;2023-07-13T00:23:44;4.22;;;1.92;;
23140;SDS011;11739;54.750;9.124;2023-07-13T00:26:10;3.08;;;1.75;;
23140;SDS011;11739;54.750;9.124;2023-07-13T00:28:36;4.43;;;2.00;;
23140;SDS011;11739;54.750;9.124;2023-07-13T00:31:02;3.70;;;1.90;;
23140;SDS011;11739;54.750;9.124;2023-07-13T00:33:28;2.55;;;1.70;;
23140;SDS011;11739;54.750;9.124;2023-07-13T00:35:53;4.93;;;1.83;;
23140;SDS011;11739;54.750;9.124;2023-07-13T00:38:19;2.85;;;1.83;;
23140;SDS011;11739;54.750;9.124;2023-07-13T00:40:44;3.78;;;1.67;;
23140;SDS011;11739;54.750;9.124;2023-07-13T00:43:14;3.50;;;1.80;;
23140;SDS011;11739;54.750;9.124;2023-07-13T00:48:10;2.93;;;1.67;;
23140;SDS011;11739;54.750;9.124;2023-07-13T00:50:37;2.88;;;1.55;;
23140;SDS011;11739;54.750;9.124;2023-07-13T00:53:03;2.78;;;1.63;;
23140;SDS011;11739;54.750;9.124;2023-07-13T00:55:28;3.33;;;1.88;;
23140;SDS011;11739;54.750;9.124;2023-07-13T00:57:54;3.60;;;1.98;;
23140;SDS011;11739;54.750;9.124;2023-07-13T01:00:19;4.50;;;1.75;;
23140;SDS011;11739;54.750;9.124;2023-07-13T01:02:45;3.05;;;1.73;;
23140;SDS011;11739;54.750;9.124;2023-07-13T01:05:19;3.85;;;1.92;;
23140;SDS011;11739;54.750;9.124;2023-07-13T01:07:47;3.15;;;1.67;;
23140;SDS011;11739;54.750;9.124;2023-07-13T01:10:13;4.00;;;1.90;;
23140;SDS011;11739;54.750;9.124;2023-07-13T01:12:39;2.63;;;1.65;;
23140;SDS011;11739;54.750;9.124;2023-07-13T01:15:05;4.82;;;1.80;;
23140;SDS011;11739;54.750;9.124;2023-07-13T01:17:31;3.00;;;1.70;;
23140;SDS011;11739;54.750;9.124;2023-07-13T01:19:58;3.55;;;1.85;;
23140;SDS011;11739;54.750;9.124;2023-07-13T01:22:24;5.00;;;1.95;;
23140;SDS011;11739;54.750;9.124;2023-07-13T01:24:49;4.45;;;2.20;;
23140;SDS011;11739;54.750;9.124;2023-07-13T01:27:15;3.05;;;1.90;;
23140;SDS011;11739;54.750;9.124;2023-07-13T01:29:43;3.70;;;1.80;;
23140;SDS011;11739;54.750;9.124;2023-07-13T01:32:10;3.17;;;1.83;;
23140;SDS011;11739;54.750;9.124;2023-07-13T01:34:37;2.33;;;1.77;;
23140;SDS011;11739;54.750;9.124;2023-07-13T01:37:03;3.67;;;1.83;;
23140;SDS011;11739;54.750;9.124;2023-07-13T01:39:29;4.97;;;2.22;;
23140;SDS011;11739;54.750;9.124;2023-07-13T01:41:55;6.35;;;2.47;;
23140;SDS011;11739;54.750;9.124;2023-07-13T01:44:20;4.35;;;2.17;;
23140;SDS011;11739;54.750;9.124;2023-07-13T01:46:45;3.40;;;2.05;;
23140;SDS011;11739;54.750;9.124;2023-07-13T01:49:10;4.40;;;2.10;;
23140;SDS011;11739;54.750;9.124;2023-07-13T01:51:36;3.03;;;1.80;;
23140;SDS011;11739;54.750;9.124;2023-07-13T01:54:01;2.90;;;2.03;;
23140;SDS011;11739;54.750;9.124;2023-07-13T01:56:26;2.67;;;1.63;;
23140;SDS011;11739;54.750;9.124;2023-07-13T01:58:52;5.15;;;1.98;;
23140;SDS011;11739;54.750;9.124;2023-07-13T02:01:17;4.75;;;2.13;;
23140;SDS011;11739;54.750;9.124;2023-07-13T02:03:42;5.75;;;2.33;;
23140;SDS011;11739;54.750;9.124;2023-07-13T02:06:08;3.63;;;2.08;;
23140;SDS011;11739;54.750;9.124;2023-07-13T02:08:33;4.63;;;2.03;;
23140;SDS011;11739;54.750;9.124;2023-07-13T02:10:58;4.00;;;2.08;;
23140;SDS011;11739;54.750;9.124;2023-07-13T02:13:24;4.30;;;1.95;;
23140;SDS011;11739;54.750;9.124;2023-07-13T02:15:50;4.18;;;1.70;;
23140;SDS011;11739;54.750;9.124;2023-07-13T02:18:15;4.35;;;1.92;;
23140;SDS011;11739;54.750;9.124;2023-07-13T02:20:41;5.13;;;2.25;;
23140;SDS011;11739;54.750;9.124;2023-07-13T02:23:06;2.90;;;1.90;;
23140;SDS011;11739;54.750;9.124;2023-07-13T02:25:31;3.20;;;2.08;;
23140;SDS011;11739;54.750;9.124;2023-07-13T02:27:57;4.78;;;1.90;;
23140;SDS011;11739;54.750;9.124;2023-07-13T02:30:22;3.47;;;1.70;;
23140;SDS011;11739;54.750;9.124;2023-07-13T02:32:47;3.28;;;1.45;;
23140;SDS011;11739;54.750;9.124;2023-07-13T02:35:13;2.90;;;2.05;;
23140;SDS011;11739;54.750;9.124;2023-07-13T02:37:38;2.60;;;1.80;;
23140;SDS011;11739;54.750;9.124;2023-07-13T02:40:03;4.68;;;1.70;;
23140;SDS011;11739;54.750;9.124;2023-07-13T02:42:29;3.60;;;1.70;;
23140;SDS011;11739;54.750;9.124;2023-07-13T02:44:54;6.45;;;2.20;;
23140;SDS011;11739;54.750;9.124;2023-07-13T02:47:20;6.55;;;2.20;;
23140;SDS011;11739;54.750;9.124;2023-07-13T02:49:45;9.88;;;3.10;;
23140;SDS011;11739;54.750;9.124;2023-07-13T02:52:10;4.15;;;2.47;;
23140;SDS011;11739;54.750;9.124;2023-07-13T02:54:35;3.75;;;2.28;;
23140;SDS011;11739;54.750;9.124;2023-07-13T02:57:01;4.30;;;2.28;;
23140;SDS011;11739;54.750;9.124;2023-07-13T02:59:26;4.80;;;2.20;;
23140;SDS011;11739;54.750;9.124;2023-07-13T03:01:51;4.43;;;2.40;;
23140;SDS011;11739;54.750;9.124;2023-07-13T03:04:17;8.50;;;2.47;;
23140;SDS011;11739;54.750;9.124;2023-07-13T03:06:42;7.28;;;2.33;;
23140;SDS011;11739;54.750;9.124;2023-07-13T03:09:07;4.53;;;2.10;;
23140;SDS011;11739;54.750;9.124;2023-07-13T03:11:33;5.10;;;2.50;;
23140;SDS011;11739;54.750;9.124;2023-07-13T03:13:58;5.65;;;2.13;;
23140;SDS011;11739;54.750;9.124;2023-07-13T03:16:23;5.40;;;2.25;;
23140;SDS011;11739;54.750;9.124;2023-07-13T03:18:49;4.13;;;1.90;;
23140;SDS011;11739;54.750;9.124;2023-07-13T03:21:14;3.75;;;2.10;;
23140;SDS011;11739;54.750;9.124;2023-07-13T03:23:40;4.95;;;2.20;;
23140;SDS011;11739;54.750;9.124;2023-07-13T03:28:32;4.43;;;2.05;;
23140;SDS011;11739;54.750;9.124;2023-07-13T03:31:01;3.53;;;2.10;;
23140;SDS011;11739;54.750;9.124;2023-07-13T03:35:56;2.92;;;1.65;;
23140;SDS011;11739;54.750;9.124;2023-07-13T03:38:22;3.70;;;1.92;;
23140;SDS011;11739;54.750;9.124;2023-07-13T03:40:47;2.55;;;1.83;;
23140;SDS011;11739;54.750;9.124;2023-07-13T03:43:12;5.05;;;2.22;;
23140;SDS011;11739;54.750;9.124;2023-07-13T03:45:38;4.15;;;2.10;;
23140;SDS011;11739;54.750;9.124;2023-07-13T03:48:03;3.75;;;1.92;;
23140;SDS011;11739;54.750;9.124;2023-07-13T03:50:28;2.38;;;1.50;;
23140;SDS011;11739;54.750;9.124;2023-07-13T03:52:54;3.55;;;1.60;;
23140;SDS011;11739;54.750;9.124;2023-07-13T03:55:19;4.70;;;1.77;;
23140;SDS011;11739;54.750;9.124;2023-07-13T03:57:44;3.95;;;1.50;;
23140;SDS011;11739;54.750;9.124;2023-07-13T04:00:10;3.58;;;1.65;;
23140;SDS011;11739;54.750;9.124;2023-07-13T04:02:35;2.20;;;1.25;;
23140;SDS011;11739;54.750;9.124;2023-07-13T04:05:01;2.30;;;1.30;;
23140;SDS011;11739;54.750;9.124;2023-07-13T04:07:26;2.90;;;1.55;;
23140;SDS011;11739;54.750;9.124;2023-07-13T04:09:51;2.45;;;1.45;;
23140;SDS011;11739;54.750;9.124;2023-07-13T04:12:17;4.10;;;1.63;;
23140;SDS011;11739;54.750;9.124;2023-07-13T04:14:42;1.67;;;1.30;;
23140;SDS011;11739;54.750;9.124;2023-07-13T04:17:07;2.97;;;1.33;;
23140;SDS011;11739;54.750;9.124;2023-07-13T04:19:33;2.20;;;1.23;;
23140;SDS011;11739;54.750;9.124;2023-07-13T04:21:58;2.58;;;1.55;;
23140;SDS011;11739;54.750;9.124;2023-07-13T04:24:23;2.45;;;1.40;;
23140;SDS011;11739;54.750;9.124;2023-07-13T04:26:49;2.35;;;1.80;;
23140;SDS011;11739;54.750;9.124;2023-07-13T04:29:14;4.68;;;1.80;;
23140;SDS011;11739;54.750;9.124;2023-07-13T04:31:39;5.03;;;2.25;;
23140;SDS011;11739;54.750;9.124;2023-07-13T04:34:04;8.00;;;2.40;;
23140;SDS011;11739;54.750;9.124;2023-07-13T04:36:30;4.18;;;2.40;;
23140;SDS011;11739;54.750;9.124;2023-07-13T04:38:55;5.95;;;2.40;;
23140;SDS011;11739;54.750;9.124;2023-07-13T04:41:21;3.97;;;2.05;;
23140;SDS011;11739;54.750;9.124;2023-07-13T04:43:46;7.55;;;2.20;;
23140;SDS011;11739;54.750;9.124;2023-07-13T04:46:13;3.83;;;1.90;;
23140;SDS011;11739;54.750;9.124;2023-07-13T04:48:39;4.53;;;1.83;;
23140;SDS011;11739;54.750;9.124;2023-07-13T04:51:05;5.35;;;2.03;;
23140;SDS011;11739;54.750;9.124;2023-07-13T04:53:30;2.75;;;1.50;;
23140;SDS011;11739;54.750;9.124;2023-07-13T04:55:56;3.45;;;1.95;;
23140;SDS011;11739;54.750;9.124;2023-07-13T04:58:22;3.15;;;1.55;;
23140;SDS011;11739;54.750;9.124;2023-07-13T05:00:47;3.10;;;1.90;;
23140;SDS011;11739;54.750;9.124;2023-07-13T05:03:13;2.28;;;1.50;;
23140;SDS011;11739;54.750;9.124;2023-07-13T05:05:38;3.78;;;1.77;;
23140;SDS011;11739;54.750;9.124;2023-07-13T05:08:03;2.72;;;1.80;;
23140;SDS011;11739;54.750;9.124;2023-07-13T05:10:29;3.80;;;1.75;;
23140;SDS011;11739;54.750;9.124;2023-07-13T05:12:54;2.97;;;1.70;;
23140;SDS011;11739;54.750;9.124;2023-07-13T05:15:21;3.60;;;1.85;;
23140;SDS011;11739;54.750;9.124;2023-07-13T05:17:47;3.10;;;1.80;;
23140;SDS011;11739;54.750;9.124;2023-07-13T05:20:13;3.78;;;1.90;;
23140;SDS011;11739;54.750;9.124;2023-07-13T05:22:38;3.42;;;1.88;;
23140;SDS011;11739;54.750;9.124;2023-07-13T05:25:04;4.53;;;2.28;;
23140;SDS011;11739;54.750;9.124;2023-07-13T05:27:30;3.15;;;1.60;;
23140;SDS011;11739;54.750;9.124;2023-07-13T05:29:56;5.20;;;2.20;;
23140;SDS011;11739;54.750;9.124;2023-07-13T05:32:21;4.53;;;2.20;;
23140;SDS011;11739;54.750;9.124;2023-07-13T05:34:46;3.92;;;1.90;;
23140;SDS011;11739;54.750;9.124;2023-07-13T05:37:11;4.97;;;2.28;;
23140;SDS011;11739;54.750;9.124;2023-07-13T05:39:37;6.00;;;2.55;;
23140;SDS011;11739;54.750;9.124;2023-07-13T05:42:02;5.47;;;2.60;;
23140;SDS011;11739;54.750;9.124;2023-07-13T05:44:28;4.65;;;2.38;;
23140;SDS011;11739;54.750;9.124;2023-07-13T05:46:53;5.35;;;2.65;;
23140;SDS011;11739;54.750;9.124;2023-07-13T05:49:18;5.85;;;2.30;;
23140;SDS011;11739;54.750;9.124;2023-07-13T05:51:43;6.20;;;2.15;;
23140;SDS011;11739;54.750;9.124;2023-07-13T05:54:09;3.95;;;2.03;;
23140;SDS011;11739;54.750;9.124;2023-07-13T05:56:34;4.60;;;2.35;;
23140;SDS011;11739;54.750;9.124;2023-07-13T05:58:59;2.95;;;1.77;;
23140;SDS011;11739;54.750;9.124;2023-07-13T06:01:25;5.57;;;2.50;;
23140;SDS011;11739;54.750;9.124;2023-07-13T06:03:50;4.22;;;2.10;;
23140;SDS011;11739;54.750;9.124;2023-07-13T06:06:15;8.18;;;2.33;;
23140;SDS011;11739;54.750;9.124;2023-07-13T06:08:41;5.22;;;2.10;;
23140;SDS011;11739;54.750;9.124;2023-07-13T06:11:07;2.67;;;2.00;;
23140;SDS011;11739;54.750;9.124;2023-07-13T06:13:37;3.83;;;1.80;;
23140;SDS011;11739;54.750;9.124;2023-07-13T06:16:03;4.57;;;1.83;;
23140;SDS011;11739;54.750;9.124;2023-07-13T06:18:28;3.95;;;2.10;;
23140;SDS011;11739;54.750;9.124;2023-07-13T06:20:54;5.22;;;2.33;;
23140;SDS011;11739;54.750;9.124;2023-07-13T06:23:19;3.65;;;2.00;;
23140;SDS011;11739;54.750;9.124;2023-07-13T06:25:44;3.33;;;1.88;;
23140;SDS011;11739;54.750;9.124;2023-07-13T06:28:10;4.18;;;1.90;;
23140;SDS011;11739;54.750;9.124;2023-07-13T06:30:37;2.72;;;1.48;;
23140;SDS011;11739;54.750;9.124;2023-07-13T06:33:03;2.47;;;1.58;;
23140;SDS011;11739;54.750;9.124;2023-07-13T06:35:28;2.83;;;1.65;;
23140;SDS011;11739;54.750;9.124;2023-07-13T06:37:53;3.50;;;1.90;;
23140;SDS011;11739;54.750;9.124;2023-07-13T06:40:19;3.47;;;2.08;;
23140;SDS011;11739;54.750;9.124;2023-07-13T06:42:44;3.50;;;1.67;;
23140;SDS011;11739;54.750;9.124;2023-07-13T06:45:10;3.65;;;1.60;;
23140;SDS011;11739;54.750;9.124;2023-07-13T06:47:35;3.78;;;1.90;;
23140;SDS011;11739;54.750;9.124;2023-07-13T06:50:00;3.72;;;1.80;;
23140;SDS011;11739;54.750;9.124;2023-07-13T06:52:25;4.15;;;1.65;;
23140;SDS011;11739;54.750;9.124;2023-07-13T06:54:51;4.47;;;1.75;;
23140;SDS011;11739;54.750;9.124;2023-07-13T06:57:16;3.03;;;1.70;;
23140;SDS011;11739;54.750;9.124;2023-07-13T06:59:41;3.50;;;1.83;;
23140;SDS011;11739;54.750;9.124;2023-07-13T07:02:08;3.97;;;1.42;;
23140;SDS011;11739;54.750;9.124;2023-07-13T07:04:35;2.95;;;1.60;;
23140;SDS011;11739;54.750;9.124;2023-07-13T07:07:00;2.78;;;1.65;;
23140;SDS011;11739;54.750;9.124;2023-07-13T07:09:25;2.88;;;1.60;;
23140;SDS011;11739;54.750;9.124;2023-07-13T07:11:51;3.80;;;1.70;;
23140;SDS011;11739;54.750;9.124;2023-07-13T07:14:16;2.63;;;1.92;;
23140;SDS011;11739;54.750;9.124;2023-07-13T07:16:41;3.83;;;1.70;;
23140;SDS011;11739;54.750;9.124;2023-07-13T07:19:07;6.53;;;2.20;;
23140;SDS011;11739;54.750;9.124;2023-07-13T07:21:32;4.57;;;1.83;;
23140;SDS011;11739;54.750;9.124;2023-07-13T07:23:57;4.10;;;2.10;;
23140;SDS011;11739;54.750;9.124;2023-07-13T07:26:22;5.22;;;2.00;;
23140;SDS011;11739;54.750;9.124;2023-07-13T07:28:48;4.80;;;2.10;;
23140;SDS011;11739;54.750;9.124;2023-07-13T07:31:13;9.23;;;2.30;;
23140;SDS011;11739;54.750;9.124;2023-07-13T07:33:38;5.25;;;2.10;;
23140;SDS011;11739;54.750;9.124;2023-07-13T07:36:04;6.60;;;2.00;;
23140;SDS011;11739;54.750;9.124;2023-07-13T07:38:29;2.97;;;1.90;;
23140;SDS011;11739;54.750;9.124;2023-07-13T07:40:54;4.20;;;2.00;;
23140;SDS011;11739;54.750;9.124;2023-07-13T07:43:20;6.72;;;2.20;;
23140;SDS011;11739;54.750;9.124;2023-07-13T07:45:45;5.18;;;1.80;;
23140;SDS011;11739;54.750;9.124;2023-07-13T07:48:11;4.07;;;2.03;;
23140;SDS011;11739;54.750;9.124;2023-07-13T07:50:36;5.18;;;2.03;;
23140;SDS011;11739;54.750;9.124;2023-07-13T07:53:01;5.82;;;2.17;;
23140;SDS011;11739;54.750;9.124;2023-07-13T07:55:27;3.03;;;1.67;;
23140;SDS011;11739;54.750;9.124;2023-07-13T07:57:52;3.67;;;1.92;;
23140;SDS011;11739;54.750;9.124;2023-07-13T08:00:18;5.38;;;1.90;;
23140;SDS011;11739;54.750;9.124;2023-07-13T08:02:43;4.78;;;1.85;;
23140;SDS011;11739;54.750;9.124;2023-07-13T08:05:09;7.75;;;2.10;;
23140;SDS011;11739;54.750;9.124;2023-07-13T08:07:35;8.00;;;2.30;;
23140;SDS011;11739;54.750;9.124;2023-07-13T08:10:01;5.05;;;2.20;;
23140;SDS011;11739;54.750;9.124;2023-07-13T08:12:26;5.75;;;1.88;;
23140;SDS011;11739;54.750;9.124;2023-07-13T08:14:52;6.75;;;2.22;;
23140;SDS011;11739;54.750;9.124;2023-07-13T08:17:17;5.72;;;1.90;;
23140;SDS011;11739;54.750;9.124;2023-07-13T08:19:42;4.60;;;2.00;;
23140;SDS011;11739;54.750;9.124;2023-07-13T08:22:08;5.03;;;2.00;;
23140;SDS011;11739;54.750;9.124;2023-07-13T08:24:33;5.60;;;2.10;;
23140;SDS011;11739;54.750;9.124;2023-07-13T08:26:58;6.05;;;2.10;;
23140;SDS011;11739;54.750;9.124;2023-07-13T08:29:24;4.22;;;2.10;;
23140;SDS011;11739;54.750;9.124;2023-07-13T08:31:49;4.75;;;1.95;;
23140;SDS011;11739;54.750;9.124;2023-07-13T08:34:14;4.35;;;2.10;;
23140;SDS011;11739;54.750;9.124;2023-07-13T08:36:40;6.43;;;2.00;;
23140;SDS011;11739;54.750;9.124;2023-07-13T08:39:05;5.85;;;1.83;;
23140;SDS011;11739;54.750;9.124;2023-07-13T08:41:30;4.75;;;1.73;;
23140;SDS011;11739;54.750;9.124;2023-07-13T08:43:56;4.75;;;1.70;;
23140;SDS011;11739;54.750;9.124;2023-07-13T08:46:28;5.53;;;2.03;;
23140;SDS011;11739;54.750;9.124;2023-07-13T08:49:02;3.33;;;1.85;;
23140;SDS011;11739;54.750;9.124;2023-07-13T08:54:12;7.63;;;1.77;;
23140;SDS011;11739;54.750;9.124;2023-07-13T08:56:44;4.22;;;1.92;;
23140;SDS011;11739;54.750;9.124;2023-07-13T08:59:14;8.40;;;2.00;;
23140;SDS011;11739;54.750;9.124;2023-07-13T09:01:51;6.18;;;1.70;;
23140;SDS011;11739;54.750;9.124;2023-07-13T09:04:29;4.43;;;1.80;;
23140;SDS011;11739;54.750;9.124;2023-07-13T09:07:11;8.32;;;2.40;;
23140;SDS011;11739;54.750;9.124;2023-07-13T09:09:45;4.47;;;2.10;;
23140;SDS011;11739;54.750;9.124;2023-07-13T09:12:33;3.92;;;1.90;;
23140;SDS011;11739;54.750;9.124;2023-07-13T09:15:05;4.00;;;1.52;;
23140;SDS011;11739;54.750;9.124;2023-07-13T09:17:55;2.92;;;1.77;;
23140;SDS011;11739;54.750;9.124;2023-07-13T09:20:32;4.43;;;1.50;;
23140;SDS011;11739;54.750;9.124;2023-07-13T09:23:00;3.25;;;1.75;;
23140;SDS011;11739;54.750;9.124;2023-07-13T09:25:29;2.35;;;1.23;;
23140;SDS011;11739;54.750;9.124;2023-07-13T09:27:58;3.67;;;1.50;;
23140;SDS011;11739;54.750;9.124;2023-07-13T09:30:30;2.67;;;1.30;;
23140;SDS011;11739;54.750;9.124;2023-07-13T09:32:58;3.08;;;1.33;;
23140;SDS011;11739;54.750;9.124;2023-07-13T09:35:25;3.60;;;1.60;;
23140;SDS011;11739;54.750;9.124;2023-07-13T09:37:51;2.83;;;1.55;;
23140;SDS011;11739;54.750;9.124;2023-07-13T09:40:23;1.52;;;1.17;;
23140;SDS011;11739;54.750;9.124;2023-07-13T09:42:52;2.92;;;1.25;;
23140;SDS011;11739;54.750;9.124;2023-07-13T09:45:26;3.70;;;1.42;;
23140;SDS011;11739;54.750;9.124;2023-07-13T09:47:58;5.38;;;1.80;;
23140;SDS011;11739;54.750;9.124;2023-07-13T09:50:24;5.28;;;1.85;;
23140;SDS011;11739;54.750;9.124;2023-07-13T09:52:50;5.40;;;1.95;;
23140;SDS011;11739;54.750;9.124;2023-07-13T09:57:55;4.30;;;1.80;;
23140;SDS011;11739;54.750;9.124;2023-07-13T10:00:22;4.57;;;1.80;;
23140;SDS011;11739;54.750;9.124;2023-07-13T10:02:57;4.10;;;1.80;;
23140;SDS011;11739;54.750;9.124;2023-07-13T10:05:24;4.40;;;2.03;;
23140;SDS011;11739;54.750;9.124;2023-07-13T10:07:49;3.78;;;1.60;;
23140;SDS011;11739;54.750;9.124;2023-07-13T10:10:15;5.35;;;1.63;;
23140;SDS011;11739;54.750;9.124;2023-07-13T10:12:46;5.18;;;1.70;;
23140;SDS011;11739;54.750;9.124;2023-07-13T10:15:16;6.10;;;1.75;;
23140;SDS011;11739;54.750;9.124;2023-07-13T10:17:42;3.65;;;1.70;;
23140;SDS011;11739;54.750;9.124;2023-07-13T10:20:08;3.20;;;1.75;;
23140;SDS011;11739;54.750;9.124;2023-07-13T10:25:26;3.90;;;1.92;;
23140;SDS011;11739;54.750;9.124;2023-07-13T10:27:53;4.38;;;1.98;;
23140;SDS011;11739;54.750;9.124;2023-07-13T10:30:21;4.63;;;1.65;;
23140;SDS011;11739;54.750;9.124;2023-07-13T10:32:49;5.40;;;1.60;;
23140;SDS011;11739;54.750;9.124;2023-07-13T10:35:15;4.57;;;2.20;;
23140;SDS011;11739;54.750;9.124;2023-07-13T10:37:48;4.70;;;1.80;;
23140;SDS011;11739;54.750;9.124;2023-07-13T10:40:17;5.68;;;1.88;;
23140;SDS011;11739;54.750;9.124;2023-07-13T10:42:45;4.60;;;2.30;;
23140;SDS011;11739;54.750;9.124;2023-07-13T10:45:16;4.00;;;1.65;;
23140;SDS011;11739;54.750;9.124;2023-07-13T10:47:43;4.80;;;1.80;;
23140;SDS011;11739;54.750;9.124;2023-07-13T10:50:13;4.93;;;1.73;;
23140;SDS011;11739;54.750;9.124;2023-07-13T10:55:29;4.57;;;1.67;;
23140;SDS011;11739;54.750;9.124;2023-07-13T10:58:11;4.60;;;1.80;;
23140;SDS011;11739;54.750;9.124;2023-07-13T11:03:47;4.30;;;2.00;;
23140;SDS011;11739;54.750;9.124;2023-07-13T11:06:16;3.90;;;1.58;;
23140;SDS011;11739;54.750;9.124;2023-07-13T11:08:54;4.47;;;1.77;;
23140;SDS011;11739;54.750;9.124;2023-07-13T11:18:49;3.70;;;1.92;;
23140;SDS011;11739;54.750;9.124;2023-07-13T11:21:15;4.63;;;1.88;;
23140;SDS011;11739;54.750;9.124;2023-07-13T11:23:43;5.20;;;2.25;;
23140;SDS011;11739;54.750;9.124;2023-07-13T11:29:24;5.13;;;1.42;;
23140;SDS011;11739;54.750;9.124;2023-07-13T11:31:55;3.50;;;1.60;;
23140;SDS011;11739;54.750;9.124;2023-07-13T11:36:56;8.15;;;2.00;;
23140;SDS011;11739;54.750;9.124;2023-07-13T11:39:25;7.85;;;2.00;;
23140;SDS011;11739;54.750;9.124;2023-07-13T11:41:57;3.47;;;1.50;;
23140;SDS011;11739;54.750;9.124;2023-07-13T11:44:25;4.32;;;1.83;;
23140;SDS011;11739;54.750;9.124;2023-07-13T11:46:52;5.38;;;1.65;;
23140;SDS011;11739;54.750;9.124;2023-07-13T11:49:19;4.50;;;1.55;;
23140;SDS011;11739;54.750;9.124;2023-07-13T11:51:46;4.53;;;1.80;;
23140;SDS011;11739;54.750;9.124;2023-07-13T11:54:22;4.95;;;2.03;;
23140;SDS011;11739;54.750;9.124;2023-07-13T11:56:50;4.35;;;1.70;;
23140;SDS011;11739;54.750;9.124;2023-07-13T11:59:16;5.68;;;2.00;;
23140;SDS011;11739;54.750;9.124;2023-07-13T12:01:46;6.80;;;1.90;;
23140;SDS011;11739;54.750;9.124;2023-07-13T12:04:19;4.63;;;1.60;;
23140;SDS011;11739;54.750;9.124;2023-07-13T12:06:46;6.28;;;1.90;;
23140;SDS011;11739;54.750;9.124;2023-07-13T12:09:13;4.75;;;1.63;;
23140;SDS011;11739;54.750;9.124;2023-07-13T12:11:40;6.82;;;1.85;;
23140;SDS011;11739;54.750;9.124;2023-07-13T12:14:10;4.38;;;1.63;;
23140;SDS011;11739;54.750;9.124;2023-07-13T12:16:38;5.00;;;2.00;;
23140;SDS011;11739;54.750;9.124;2023-07-13T12:19:09;4.43;;;1.88;;
23140;SDS011;11739;54.750;9.124;2023-07-13T12:21:42;5.85;;;1.80;;
23140;SDS011;11739;54.750;9.124;2023-07-13T12:24:15;3.97;;;1.70;;
23140;SDS011;11739;54.750;9.124;2023-07-13T12:26:41;5.10;;;1.83;;
23140;SDS011;11739;54.750;9.124;2023-07-13T12:29:07;5.22;;;1.80;;
23140;SDS011;11739;54.750;9.124;2023-07-13T12:31:36;5.22;;;1.67;;
23140;SDS011;11739;54.750;9.124;2023-07-13T12:36:35;3.50;;;1.40;;
23140;SDS011;11739;54.750;9.124;2023-07-13T12:41:51;6.15;;;1.63;;
23140;SDS011;11739;54.750;9.124;2023-07-13T12:44:28;3.67;;;1.30;;
23140;SDS011;11739;54.750;9.124;2023-07-13T12:47:14;4.53;;;1.25;;
23140;SDS011;11739;54.750;9.124;2023-07-13T12:49:40;5.93;;;1.60;;
23140;SDS011;11739;54.750;9.124;2023-07-13T12:52:15;3.53;;;1.35;;
23140;SDS011;11739;54.750;9.124;2023-07-13T12:54:52;3.45;;;1.10;;
23140;SDS011;11739;54.750;9.124;2023-07-13T12:57:18;4.18;;;1.08;;
23140;SDS011;11739;54.750;9.124;2023-07-13T12:59:43;2.72;;;0.90;;
23140;SDS011;11739;54.750;9.124;2023-07-13T13:04:55;2.45;;;1.00;;
23140;SDS011;11739;54.750;9.124;2023-07-13T13:07:20;3.75;;;1.05;;
23140;SDS011;11739;54.750;9.124;2023-07-13T13:09:46;2.28;;;0.75;;
23140;SDS011;11739;54.750;9.124;2023-07-13T13:12:11;2.45;;;1.10;;
23140;SDS011;11739;54.750;9.124;2023-07-13T13:14:36;3.47;;;1.08;;
23140;SDS011;11739;54.750;9.124;2023-07-13T13:17:02;2.92;;;1.00;;
23140;SDS011;11739;54.750;9.124;2023-07-13T13:19:27;5.97;;;1.13;;
23140;SDS011;11739;54.750;9.124;2023-07-13T13:21:54;3.95;;;1.30;;
23140;SDS011;11739;54.750;9.124;2023-07-13T13:24:20;2.92;;;1.08;;
23140;SDS011;11739;54.750;9.124;2023-07-13T13:26:49;5.68;;;1.00;;
23140;SDS011;11739;54.750;9.124;2023-07-13T13:29:16;3.58;;;1.35;;
23140;SDS011;11739;54.750;9.124;2023-07-13T13:31:43;2.58;;;1.10;;
23140;SDS011;11739;54.750;9.124;2023-07-13T13:34:13;4.45;;;1.50;;
23140;SDS011;11739;54.750;9.124;2023-07-13T13:36:40;3.88;;;1.33;;
23140;SDS011;11739;54.750;9.124;2023-07-13T13:39:18;3.50;;;1.20;;
23140;SDS011;11739;54.750;9.124;2023-07-13T13:41:48;5.10;;;1.33;;
23140;SDS011;11739;54.750;9.124;2023-07-13T13:44:18;5.45;;;1.25;;
23140;SDS011;11739;54.750;9.124;2023-07-13T13:46:44;3.45;;;1.25;;
23140;SDS011;11739;54.750;9.124;2023-07-13T13:49:17;2.85;;;1.25;;
23140;SDS011;11739;54.750;9.124;2023-07-13T13:51:44;3.55;;;1.00;;
23140;SDS011;11739;54.750;9.124;2023-07-13T13:54:13;3.88;;;1.20;;
23140;SDS011;11739;54.750;9.124;2023-07-13T13:56:41;6.18;;;1.38;;
23140;SDS011;11739;54.750;9.124;2023-07-13T13:59:07;4.32;;;1.23;;
23140;SDS011;11739;54.750;9.124;2023-07-13T14:01:32;2.38;;;1.20;;
23140;SDS011;11739;54.750;9.124;2023-07-13T14:03:57;4.63;;;1.48;;
23140;SDS011;11739;54.750;9.124;2023-07-13T14:06:23;2.35;;;1.10;;
23140;SDS011;11739;54.750;9.124;2023-07-13T14:08:48;2.05;;;0.98;;
23140;SDS011;11739;54.750;9.124;2023-07-13T14:11:15;3.10;;;1.10;;
23140;SDS011;11739;54.750;9.124;2023-07-13T14:13:47;2.47;;;1.20;;
23140;SDS011;11739;54.750;9.124;2023-07-13T14:16:17;2.78;;;1.23;;
23140;SDS011;11739;54.750;9.124;2023-07-13T14:18:44;4.53;;;1.42;;
23140;SDS011;11739;54.750;9.124;2023-07-13T14:21:30;2.13;;;1.00;;
23140;SDS011;11739;54.750;9.124;2023-07-13T14:23:55;4.15;;;1.50;;
23140;SDS011;11739;54.750;9.124;2023-07-13T14:26:21;1.80;;;0.98;;
23140;SDS011;11739;54.750;9.124;2023-07-13T14:28:49;3.83;;;1.15;;
23140;SDS011;11739;54.750;9.124;2023-07-13T14:31:21;4.32;;;1.38;;
23140;SDS011;11739;54.750;9.124;2023-07-13T14:33:47;2.47;;;1.15;;
23140;SDS011;11739;54.750;9.124;2023-07-13T14:36:21;4.82;;;1.52;;
23140;SDS011;11739;54.750;9.124;2023-07-13T14:38:49;3.10;;;1.40;;
23140;SDS011;11739;54.750;9.124;2023-07-13T14:41:15;3.70;;;1.55;;
23140;SDS011;11739;54.750;9.124;2023-07-13T14:43:40;4.35;;;1.52;;
23140;SDS011;11739;54.750;9.124;2023-07-13T14:46:06;6.90;;;1.50;;
23140;SDS011;11739;54.750;9.124;2023-07-13T14:48:36;5.03;;;1.27;;
23140;SDS011;11739;54.750;9.124;2023-07-13T14:51:01;2.70;;;1.50;;
23140;SDS011;11739;54.750;9.124;2023-07-13T14:53:26;4.38;;;1.48;;
23140;SDS011;11739;54.750;9.124;2023-07-13T14:55:52;3.75;;;1.50;;
23140;SDS011;11739;54.750;9.124;2023-07-13T14:58:17;2.75;;;1.20;;
23140;SDS011;11739;54.750;9.124;2023-07-13T15:00:43;3.83;;;1.27;;
23140;SDS011;11739;54.750;9.124;2023-07-13T15:03:15;4.07;;;1.30;;
23140;SDS011;11739;54.750;9.124;2023-07-13T15:05:43;3.83;;;1.20;;
23140;SDS011;11739;54.750;9.124;2023-07-13T15:08:08;3.80;;;1.35;;
23140;SDS011;11739;54.750;9.124;2023-07-13T15:10:34;2.17;;;1.30;;
23140;SDS011;11739;54.750;9.124;2023-07-13T15:13:00;3.15;;;1.48;;
23140;SDS011;11739;54.750;9.124;2023-07-13T15:15:43;2.40;;;1.40;;
23140;SDS011;11739;54.750;9.124;2023-07-13T15:18:11;3.40;;;1.20;;
23140;SDS011;11739;54.750;9.124;2023-07-13T15:20:37;4.95;;;1.70;;
23140;SDS011;11739;54.750;9.124;2023-07-13T15:23:02;5.13;;;1.65;;
23140;SDS011;11739;54.750;9.124;2023-07-13T15:25:29;3.90;;;1.60;;
23140;SDS011;11739;54.750;9.124;2023-07-13T15:27:55;3.13;;;1.40;;
23140;SDS011;11739;54.750;9.124;2023-07-13T15:30:21;5.13;;;1.73;;